Time;durP1;ratioP1;P1;durP2;ratioP2;P2;SDS_P1;SDS_P2;PMS_P1;PMS_P2;Temp;Humidity;BMP_temperature;BMP_pressure;BME280_temperature;BME280_humidity;BME280_pressure;Samples;Min_cycle;Max_cycle;Signal;HPM_P1;HPM_P2
2022/10/06 00:00:39;;;;;;;26.10;14.50;;;17.20;99.90;;;;;;5057753;28;20009;-76
2022/10/06 00:03:05;;;;;;;23.52;15.30;;;17.10;99.90;;;;;;5056125;28;20080;-77
2022/10/06 00:05:31;;;;;;;28.10;17.23;;;17.10;99.90;;;;;;5057128;28;20024;-78
2022/10/06 00:07:58;;;;;;;24.98;16.33;;;17.10;99.90;;;;;;5056210;28;20033;-76
2022/10/06 00:10:24;;;;;;;32.88;16.00;;;17.10;99.90;;;;;;5057504;28;20021;-76
2022/10/06 00:12:51;;;;;;;26.75;16.50;;;17.10;99.90;;;;;;5056146;28;20037;-76
2022/10/06 00:15:20;;;;;;;28.63;16.98;;;17.00;99.90;;;;;;5057621;28;20931;-77
2022/10/06 00:17:46;;;;;;;29.13;15.80;;;17.00;99.90;;;;;;5055703;28;20405;-77
2022/10/06 00:20:13;;;;;;;27.00;15.98;;;17.00;99.90;;;;;;5056224;28;20021;-77
2022/10/06 00:22:41;;;;;;;28.10;16.30;;;16.90;99.90;;;;;;5055914;28;20373;-77
2022/10/06 00:25:10;;;;;;;33.90;16.35;;;16.90;99.90;;;;;;5057458;28;20025;-77
2022/10/06 00:27:43;;;;;;;32.28;17.27;;;16.90;99.90;;;;;;5056996;28;20051;-77
2022/10/06 00:30:13;;;;;;;26.98;15.23;;;16.90;99.90;;;;;;5055727;28;20032;-77
2022/10/06 00:32:40;;;;;;;24.95;15.35;;;16.90;99.90;;;;;;5055834;28;20032;-77
2022/10/06 00:35:07;;;;;;;27.60;15.13;;;16.90;99.90;;;;;;5055169;28;20025;-77
2022/10/06 00:37:37;;;;;;;22.73;14.98;;;16.90;99.90;;;;;;5057254;28;20469;-77
2022/10/06 00:40:08;;;;;;;26.30;16.13;;;16.90;99.90;;;;;;5054947;28;20393;-77
2022/10/06 00:42:57;;;;;;;20.73;13.60;;;16.90;99.90;;;;;;5055755;28;20101;-76
2022/10/06 00:45:35;;;;;;;25.60;15.15;;;16.90;99.90;;;;;;5057091;28;20086;-77
2022/10/06 00:48:10;;;;;;;26.65;15.05;;;17.00;99.90;;;;;;5055511;28;20021;-77
2022/10/06 00:50:36;;;;;;;22.27;14.43;;;17.00;99.90;;;;;;5055582;28;20029;-77
2022/10/06 00:53:04;;;;;;;24.83;14.43;;;16.90;99.90;;;;;;5056787;28;20021;-77
2022/10/06 00:55:30;;;;;;;23.55;14.32;;;16.90;99.90;;;;;;5056562;28;20039;-77
2022/10/06 00:57:58;;;;;;;22.08;13.50;;;16.90;99.90;;;;;;5056756;28;20096;-77
2022/10/06 01:00:24;;;;;;;23.98;14.48;;;16.90;99.90;;;;;;5056686;28;20025;-76
2022/10/06 01:03:04;;;;;;;23.05;13.98;;;16.90;99.90;;;;;;5056894;28;20013;-77
2022/10/06 01:05:35;;;;;;;22.40;13.40;;;16.90;99.90;;;;;;5055126;28;20441;-77
2022/10/06 01:08:01;;;;;;;25.63;14.60;;;16.90;99.90;;;;;;5056876;28;20029;-77
2022/10/06 01:10:27;;;;;;;31.17;15.95;;;16.90;99.90;;;;;;5056569;28;20460;-77
2022/10/06 01:12:54;;;;;;;26.20;15.07;;;16.90;99.90;;;;;;5056518;28;20017;-77
2022/10/06 01:15:21;;;;;;;23.27;13.57;;;16.90;99.90;;;;;;5056893;28;20035;-77
2022/10/06 01:17:51;;;;;;;23.35;15.75;;;16.90;99.90;;;;;;5056413;28;20481;-77
2022/10/06 01:20:18;;;;;;;27.90;14.10;;;16.90;99.90;;;;;;5055012;28;20028;-77
2022/10/06 01:22:59;;;;;;;23.98;14.20;;;16.90;99.90;;;;;;5055412;28;20428;-77
2022/10/06 01:25:24;;;;;;;;;;;16.90;99.90;;;;;;5055560;28;20466;-76
2022/10/06 01:27:53;;;;;;;26.77;13.52;;;16.90;99.90;;;;;;5055084;28;19944;-77
2022/10/06 01:30:30;;;;;;;21.50;13.70;;;16.90;99.90;;;;;;5056480;28;20025;-77
2022/10/06 01:32:56;;;;;;;19.05;12.73;;;16.90;99.90;;;;;;5056208;28;20025;-77
2022/10/06 01:35:22;;;;;;;29.52;13.80;;;16.90;99.90;;;;;;5054768;28;20116;-77
2022/10/06 01:37:48;;;;;;;20.95;13.93;;;16.90;99.90;;;;;;5056269;28;20035;-77
2022/10/06 01:40:13;;;;;;;25.05;14.57;;;16.90;99.90;;;;;;5054169;28;20029;-77
2022/10/06 01:42:39;;;;;;;21.02;13.38;;;16.90;99.90;;;;;;5056362;28;20028;-77
2022/10/06 01:45:06;;;;;;;25.88;13.18;;;16.90;99.90;;;;;;5056154;28;20018;-76
2022/10/06 01:47:33;;;;;;;19.73;13.23;;;16.90;99.90;;;;;;5056197;28;20084;-77
2022/10/06 01:49:59;;;;;;;20.38;14.43;;;16.90;99.90;;;;;;5054810;28;20044;-77
2022/10/06 01:52:25;;;;;;;23.92;12.48;;;16.80;99.90;;;;;;5059038;28;20029;-77
2022/10/06 01:54:52;;;;;;;19.42;13.40;;;16.80;99.90;;;;;;5058967;28;20024;-77
2022/10/06 01:57:20;;;;;;;24.75;14.75;;;16.80;99.90;;;;;;5059770;28;20025;-77
2022/10/06 01:59:46;;;;;;;19.08;13.25;;;16.80;99.90;;;;;;5058611;28;20124;-77
2022/10/06 02:02:12;;;;;;;19.25;13.70;;;16.80;99.90;;;;;;5059787;28;20024;-77
2022/10/06 02:04:37;;;;;;;29.30;13.70;;;16.80;99.90;;;;;;5059611;28;20402;-77
2022/10/06 02:07:04;;;;;;;21.38;12.75;;;16.80;99.90;;;;;;5059759;28;20017;-77
2022/10/06 02:09:30;;;;;;;21.33;13.02;;;16.80;99.90;;;;;;5059899;28;20032;-76
2022/10/06 02:11:56;;;;;;;18.42;12.60;;;16.80;99.90;;;;;;5059510;28;20013;-77
2022/10/06 02:14:22;;;;;;;21.50;12.55;;;16.80;99.90;;;;;;5059726;28;20021;-77
2022/10/06 02:16:48;;;;;;;22.90;13.98;;;16.80;99.90;;;;;;5059342;28;20025;-77
2022/10/06 02:19:13;;;;;;;22.88;12.25;;;16.80;99.90;;;;;;5057902;28;20025;-77
2022/10/06 02:21:40;;;;;;;25.55;13.25;;;16.80;99.90;;;;;;5057997;28;20032;-77
2022/10/06 02:24:06;;;;;;;25.85;13.60;;;16.80;99.90;;;;;;5059515;28;20055;-77
2022/10/06 02:26:32;;;;;;;21.20;13.05;;;16.80;99.90;;;;;;5059390;28;20025;-77
2022/10/06 02:28:57;;;;;;;20.13;13.45;;;16.70;99.90;;;;;;5059205;28;20036;-77
2022/10/06 02:31:24;;;;;;;22.80;12.75;;;16.80;99.90;;;;;;5057852;28;20489;-77
2022/10/06 02:33:50;;;;;;;25.70;12.77;;;16.70;99.90;;;;;;5058844;28;20029;-77
2022/10/06 02:36:16;;;;;;;27.05;14.60;;;16.70;99.90;;;;;;5057853;28;20051;-77
2022/10/06 02:38:42;;;;;;;24.00;12.43;;;16.70;99.90;;;;;;5058291;28;20104;-76
2022/10/06 02:41:09;;;;;;;19.55;13.05;;;16.70;99.90;;;;;;5059156;28;20542;-77
2022/10/06 02:43:35;;;;;;;20.65;12.20;;;16.70;99.90;;;;;;5057701;28;20071;-77
2022/10/06 02:46:07;;;;;;;22.90;12.27;;;16.70;99.90;;;;;;5058970;28;20074;-77
2022/10/06 02:48:33;;;;;;;25.83;13.15;;;16.70;99.90;;;;;;5058875;28;20025;-76
2022/10/06 02:51:20;;;;;;;26.52;13.43;;;16.70;99.90;;;;;;5057615;28;20031;-77
2022/10/06 02:53:47;;;;;;;21.25;13.55;;;16.70;99.90;;;;;;5051565;28;20048;-76
2022/10/06 02:56:15;;;;;;;18.77;12.75;;;16.70;99.90;;;;;;5057495;28;20025;-77
2022/10/06 02:58:41;;;;;;;22.27;13.85;;;16.70;99.90;;;;;;5051680;28;20104;-77
2022/10/06 03:01:17;;;;;;;20.88;12.38;;;16.70;99.90;;;;;;5052464;28;20026;-76
2022/10/06 03:03:45;;;;;;;19.20;12.90;;;16.70;99.90;;;;;;5048401;28;20029;-77
2022/10/06 03:06:22;;;;;;;28.88;12.85;;;16.60;99.90;;;;;;5055262;28;20059;-77
2022/10/06 03:08:52;;;;;;;23.42;13.50;;;16.60;99.90;;;;;;5057099;28;20040;-77
2022/10/06 03:11:24;;;;;;;24.13;12.15;;;16.60;99.90;;;;;;5057013;28;20029;-76
2022/10/06 03:13:51;;;;;;;25.90;14.23;;;16.60;99.90;;;;;;5058512;28;20029;-77
2022/10/06 03:16:21;;;;;;;27.42;13.23;;;16.60;99.90;;;;;;5058585;28;20025;-77
2022/10/06 03:18:49;;;;;;;17.23;13.13;;;16.60;99.90;;;;;;5056662;28;20053;-77
2022/10/06 03:21:19;;;;;;;23.10;12.65;;;16.60;99.90;;;;;;5058457;28;20020;-77
2022/10/06 03:23:47;;;;;;;36.08;14.95;;;16.50;99.90;;;;;;5057279;28;20077;-77
2022/10/06 03:26:16;;;;;;;25.27;13.25;;;16.50;99.90;;;;;;5056853;28;20108;-77
2022/10/06 03:28:42;;;;;;;23.30;13.23;;;16.50;99.90;;;;;;5058081;28;20082;-78
2022/10/06 03:31:08;;;;;;;21.88;12.82;;;16.50;99.90;;;;;;5058184;28;20052;-77
2022/10/06 03:33:34;;;;;;;19.35;11.85;;;16.50;99.90;;;;;;5057923;28;20037;-77
2022/10/06 03:36:10;;;;;;;28.17;12.82;;;16.50;99.90;;;;;;5056688;28;20041;-77
2022/10/06 03:38:36;;;;;;;20.92;12.60;;;16.50;99.90;;;;;;5058529;28;20064;-78
2022/10/06 03:41:06;;;;;;;22.95;13.85;;;16.40;99.90;;;;;;5056528;28;20020;-77
2022/10/06 03:43:33;;;;;;;19.60;13.30;;;16.40;99.90;;;;;;5057976;28;20108;-77
2022/10/06 03:46:00;;;;;;;31.08;12.80;;;16.40;99.90;;;;;;5057685;28;20025;-77
2022/10/06 03:48:32;;;;;;;21.58;12.60;;;16.30;99.90;;;;;;5057712;28;20032;-77
2022/10/06 03:51:04;;;;;;;24.70;13.77;;;16.30;99.90;;;;;;5056521;28;20058;-78
2022/10/06 03:53:31;;;;;;;22.20;12.90;;;16.30;99.90;;;;;;5057802;28;20029;-77
2022/10/06 03:56:00;;;;;;;29.17;13.32;;;16.20;99.90;;;;;;5057603;28;20025;-77
2022/10/06 03:58:31;;;;;;;20.13;12.53;;;16.20;99.90;;;;;;5057640;28;20060;-77
2022/10/06 04:01:04;;;;;;;22.13;12.55;;;16.10;99.90;;;;;;5057904;28;20024;-77
2022/10/06 04:03:30;;;;;;;27.90;13.57;;;16.10;99.90;;;;;;5050210;28;20040;-78
2022/10/06 04:05:58;;;;;;;32.92;14.63;;;16.10;99.90;;;;;;5057498;28;20036;-78
2022/10/06 04:08:24;;;;;;;24.77;13.38;;;16.10;99.90;;;;;;5056149;28;20619;-78
2022/10/06 04:10:50;;;;;;;21.88;12.75;;;16.00;99.90;;;;;;5057497;28;20033;-78
2022/10/06 04:13:20;;;;;;;24.17;13.18;;;16.00;99.90;;;;;;5057367;28;20462;-78
2022/10/06 04:15:47;;;;;;;23.15;13.35;;;16.00;99.90;;;;;;5056919;28;20032;-79
2022/10/06 04:18:15;;;;;;;20.63;13.45;;;15.90;99.90;;;;;;5055650;28;20052;-77
2022/10/06 04:20:41;;;;;;;30.08;14.15;;;15.90;99.90;;;;;;5057320;28;20059;-78
2022/10/06 04:23:08;;;;;;;27.58;12.27;;;15.90;99.90;;;;;;5055968;28;20021;-77
2022/10/06 04:25:34;;;;;;;20.08;12.88;;;15.90;99.90;;;;;;5048171;28;20032;-78
2022/10/06 04:28:00;;;;;;;22.25;12.10;;;15.90;99.90;;;;;;5057232;28;20021;-77
2022/10/06 04:30:26;;;;;;;19.48;12.68;;;15.80;99.90;;;;;;5055697;28;20047;-77
2022/10/06 04:32:52;;;;;;;24.38;12.60;;;15.80;99.90;;;;;;5057386;28;20021;-77
2022/10/06 04:35:19;;;;;;;22.90;13.55;;;15.80;99.90;;;;;;5055174;28;20028;-77
2022/10/06 04:37:45;;;;;;;17.42;12.13;;;15.80;99.90;;;;;;5072298;28;20036;-77
2022/10/06 04:40:12;;;;;;;14.75;11.32;;;15.80;99.90;;;;;;5056985;28;20060;-76
2022/10/06 04:42:39;;;;;;;20.45;13.10;;;15.80;99.90;;;;;;5056922;28;20021;-77
2022/10/06 04:45:05;;;;;;;20.83;12.90;;;15.80;99.90;;;;;;5057389;28;20442;-77
2022/10/06 04:47:31;;;;;;;21.95;13.13;;;15.80;99.90;;;;;;5055273;28;20495;-77
2022/10/06 04:49:57;;;;;;;27.60;13.93;;;15.80;99.90;;;;;;5056831;28;20438;-78
2022/10/06 04:52:23;;;;;;;24.92;11.55;;;15.80;99.90;;;;;;5056922;28;20028;-77
2022/10/06 04:54:49;;;;;;;20.50;12.93;;;15.80;99.90;;;;;;5056674;28;20021;-77
2022/10/06 04:57:15;;;;;;;20.67;12.48;;;15.80;99.90;;;;;;5056579;28;20021;-77
2022/10/06 05:02:27;;;;;;;26.27;12.30;;;15.80;99.90;;;;;;5056627;28;20036;-77
2022/10/06 05:04:52;;;;;;;19.25;11.88;;;15.80;99.90;;;;;;5056435;28;20013;-78
2022/10/06 05:07:18;;;;;;;20.70;12.82;;;15.80;99.90;;;;;;5056567;28;20100;-77
2022/10/06 05:09:44;;;;;;;21.60;13.15;;;15.80;99.90;;;;;;5055330;28;20025;-78
2022/10/06 05:12:10;;;;;;;18.67;11.65;;;15.70;99.90;;;;;;5055358;28;20036;-78
2022/10/06 05:14:36;;;;;;;22.55;11.82;;;15.80;99.90;;;;;;5056953;28;20032;-77
2022/10/06 05:17:02;;;;;;;18.08;12.00;;;15.70;99.90;;;;;;5056266;28;20021;-77
2022/10/06 05:19:27;;;;;;;22.33;12.13;;;15.70;99.90;;;;;;5056490;28;20028;-78
2022/10/06 05:21:54;;;;;;;22.25;13.07;;;15.70;99.90;;;;;;5055079;28;20021;-78
2022/10/06 05:24:20;;;;;;;22.50;13.73;;;15.70;99.90;;;;;;5056713;28;20017;-79
2022/10/06 05:26:47;;;;;;;24.50;13.07;;;15.70;99.90;;;;;;5073612;28;20025;-78
2022/10/06 05:29:13;;;;;;;23.10;13.13;;;15.70;99.90;;;;;;5059239;28;20033;-78
2022/10/06 05:31:41;;;;;;;17.30;12.55;;;15.70;99.90;;;;;;5060450;28;20104;-78
2022/10/06 05:34:08;;;;;;;19.60;11.68;;;15.70;99.90;;;;;;5060248;28;20020;-78
2022/10/06 05:36:34;;;;;;;21.27;12.65;;;15.70;99.90;;;;;;5057099;28;20512;-77
2022/10/06 05:39:02;;;;;;;21.35;14.55;;;15.70;99.90;;;;;;5060125;28;20497;-78
2022/10/06 05:41:32;;;;;;;21.30;13.15;;;15.60;99.90;;;;;;5060197;28;20021;-78
2022/10/06 05:43:58;;;;;;;;;;;15.60;99.90;;;;;;5060656;28;20020;-78
2022/10/06 05:46:27;;;;;;;22.27;12.20;;;15.60;99.90;;;;;;5058668;28;20388;-79
2022/10/06 05:48:58;;;;;;;25.48;12.82;;;15.60;99.90;;;;;;5059779;28;20017;-78
2022/10/06 05:51:27;;;;;;;22.00;13.43;;;15.60;99.90;;;;;;5050901;28;20409;-78
2022/10/06 05:53:53;;;;;;;22.13;14.18;;;15.60;99.90;;;;;;5059868;28;20120;-77
2022/10/06 05:56:22;;;;;;;18.45;13.52;;;15.60;99.90;;;;;;5058775;28;20042;-78
2022/10/06 05:58:50;;;;;;;21.80;13.57;;;15.60;99.90;;;;;;5059757;28;20036;-78
2022/10/06 06:01:24;;;;;;;27.25;13.68;;;15.60;99.90;;;;;;5058444;28;20067;-77
2022/10/06 06:03:58;;;;;;;22.52;13.00;;;15.60;99.90;;;;;;5059080;28;20021;-78
2022/10/06 06:06:32;;;;;;;22.17;14.60;;;15.60;99.90;;;;;;5059986;28;20052;-78
2022/10/06 06:09:05;;;;;;;28.90;14.43;;;15.60;99.90;;;;;;5058185;28;20452;-78
2022/10/06 06:11:32;;;;;;;22.15;13.38;;;15.60;99.90;;;;;;5058749;28;20017;-77
2022/10/06 06:14:03;;;;;;;27.45;14.13;;;15.60;99.90;;;;;;5059503;28;20095;-78
2022/10/06 06:16:30;;;;;;;26.58;14.48;;;15.60;99.90;;;;;;5059504;28;20118;-78
2022/10/06 06:18:56;;;;;;;31.30;13.77;;;15.60;99.90;;;;;;5059119;28;20082;-78
2022/10/06 06:21:22;;;;;;;23.40;13.02;;;15.60;99.90;;;;;;5058386;28;20031;-79
2022/10/06 06:23:49;;;;;;;22.85;14.65;;;15.70;99.90;;;;;;5059321;28;20040;-77
2022/10/06 06:26:26;;;;;;;25.95;13.80;;;15.60;99.90;;;;;;5058347;28;20021;-79
2022/10/06 06:28:55;;;;;;;19.80;13.82;;;15.70;99.90;;;;;;5057888;28;20104;-78
2022/10/06 06:31:26;;;;;;;24.08;13.82;;;15.60;99.90;;;;;;5059219;28;20052;-78
2022/10/06 06:33:57;;;;;;;20.33;13.75;;;15.60;99.90;;;;;;5057624;28;20104;-78
2022/10/06 06:36:25;;;;;;;;;;;15.60;99.90;;;;;;5059526;28;20048;-77
2022/10/06 06:38:53;;;;;;;20.30;13.43;;;15.70;99.90;;;;;;5056806;28;19915;-78
2022/10/06 06:41:27;;;;;;;26.42;13.98;;;15.60;99.90;;;;;;5057849;28;20096;-78
2022/10/06 06:43:53;;;;;;;26.10;15.13;;;15.60;99.90;;;;;;5057743;28;20116;-78
2022/10/06 06:46:25;;;;;;;20.95;13.40;;;15.60;99.90;;;;;;5058941;28;20031;-78
2022/10/06 06:48:52;;;;;;;16.80;12.55;;;15.60;99.90;;;;;;5057503;28;20025;-77
2022/10/06 06:51:22;;;;;;;26.85;13.70;;;15.60;99.90;;;;;;5058940;28;20132;-78
2022/10/06 06:53:52;;;;;;;22.55;12.27;;;15.60;99.90;;;;;;5059186;28;20074;-78
2022/10/06 06:56:22;;;;;;;24.05;12.77;;;15.70;99.90;;;;;;5058744;28;20102;-78
2022/10/06 06:58:48;;;;;;;25.00;13.27;;;15.70;99.90;;;;;;5057527;28;20049;-78
2022/10/06 07:01:20;;;;;;;25.48;13.38;;;15.70;99.90;;;;;;5057334;28;20113;-78
2022/10/06 07:03:51;;;;;;;24.98;15.65;;;15.70;99.90;;;;;;5057169;28;20021;-78
2022/10/06 07:06:17;;;;;;;25.27;14.25;;;15.70;99.90;;;;;;5057315;28;20366;-78
2022/10/06 07:08:46;;;;;;;19.73;12.80;;;15.80;99.90;;;;;;5058542;28;20056;-78
2022/10/06 07:11:27;;;;;;;28.65;13.77;;;15.70;99.90;;;;;;5058745;28;20021;-77
2022/10/06 07:13:57;;;;;;;19.65;13.80;;;15.80;99.90;;;;;;5058648;28;20017;-77
2022/10/06 07:25:07;;;;;;;25.13;12.80;;;15.90;99.90;;;;;;5058474;28;20075;-78
2022/10/06 07:27:40;;;;;;;18.67;12.93;;;15.80;99.90;;;;;;5058247;28;20036;-77
2022/10/06 07:30:12;;;;;;;20.90;12.18;;;15.90;99.90;;;;;;5057244;28;20112;-77
2022/10/06 07:32:38;;;;;;;29.88;12.98;;;15.90;99.90;;;;;;5056852;28;20143;-78
2022/10/06 07:35:05;;;;;;;19.88;11.98;;;16.00;99.90;;;;;;5057617;28;20061;-78
2022/10/06 07:37:33;;;;;;;19.65;12.13;;;16.00;99.90;;;;;;5057123;28;20021;-78
2022/10/06 07:40:00;;;;;;;21.30;12.57;;;16.10;99.90;;;;;;5057968;28;20028;-78
2022/10/06 07:42:25;;;;;;;24.45;12.07;;;16.00;99.90;;;;;;5058170;28;20021;-77
2022/10/06 07:47:38;;;;;;;27.02;12.68;;;16.10;99.90;;;;;;5058106;28;20044;-79
2022/10/06 07:50:06;;;;;;;15.60;10.27;;;16.20;99.90;;;;;;5057409;28;20028;-78
2022/10/06 07:52:35;;;;;;;20.63;10.85;;;16.20;99.90;;;;;;5056519;28;20017;-78
2022/10/06 07:55:00;;;;;;;20.77;10.32;;;16.20;99.90;;;;;;5056764;28;20086;-78
2022/10/06 07:57:33;;;;;;;21.10;11.05;;;16.20;99.90;;;;;;5056228;28;20501;-78
2022/10/06 08:00:00;;;;;;;17.77;10.40;;;16.30;99.90;;;;;;5057931;28;20021;-78
2022/10/06 08:02:26;;;;;;;20.38;10.63;;;16.40;99.90;;;;;;5057755;28;20029;-77
2022/10/06 08:04:52;;;;;;;16.80;9.95;;;16.40;99.90;;;;;;5056203;28;20018;-77
2022/10/06 08:07:17;;;;;;;16.70;11.13;;;16.50;99.90;;;;;;5057743;28;20075;-78
2022/10/06 08:09:43;;;;;;;24.13;10.90;;;16.50;99.90;;;;;;5056294;28;20058;-78
2022/10/06 08:14:53;;;;;;;19.23;11.07;;;16.60;99.90;;;;;;5057427;28;20492;-77
2022/10/06 08:17:19;;;;;;;20.25;9.95;;;16.70;99.90;;;;;;5057334;28;20025;-77
2022/10/06 08:19:46;;;;;;;29.40;12.38;;;16.70;99.90;;;;;;5089328;28;20034;-78
2022/10/06 08:22:14;;;;;;;12.88;9.10;;;16.70;99.90;;;;;;5057174;28;20013;-77
2022/10/06 08:24:41;;;;;;;20.83;9.57;;;16.70;99.90;;;;;;5057367;28;20021;-78
2022/10/06 08:27:08;;;;;;;14.60;10.02;;;16.60;99.90;;;;;;5053071;28;20096;-77
2022/10/06 08:29:34;;;;;;;16.88;10.00;;;16.60;99.90;;;;;;5057519;28;20100;-78
2022/10/06 08:32:01;;;;;;;16.77;8.82;;;16.70;99.90;;;;;;5057107;28;20096;-77
2022/10/06 08:34:27;;;;;;;22.80;9.88;;;16.70;99.90;;;;;;5050718;28;20025;-78
2022/10/06 08:36:53;;;;;;;17.05;9.85;;;16.70;99.90;;;;;;5057438;28;20120;-78
2022/10/06 08:39:19;;;;;;;18.42;8.95;;;16.80;99.90;;;;;;5056981;28;20029;-77
2022/10/06 08:41:50;;;;;;;17.42;8.93;;;16.80;99.90;;;;;;5055865;28;20051;-78
2022/10/06 08:44:37;;;;;;;16.98;9.43;;;16.90;99.90;;;;;;5055496;28;20024;-78
2022/10/06 08:47:11;;;;;;;18.38;8.27;;;16.90;99.90;;;;;;5057137;28;20013;-77
2022/10/06 08:49:45;;;;;;;20.15;8.57;;;16.90;99.90;;;;;;5055271;28;20025;-78
2022/10/06 08:52:41;;;;;;;17.70;8.50;;;16.90;99.90;;;;;;5055712;28;20028;-78
2022/10/06 08:55:46;;;;;;;14.95;7.53;;;16.80;99.90;;;;;;5024968;28;20045;-78
2022/10/06 08:58:21;;;;;;;13.32;8.10;;;16.80;99.90;;;;;;5056974;28;20067;-78
2022/10/06 09:00:47;;;;;;;15.05;8.90;;;16.70;99.90;;;;;;5054958;28;20108;-77
2022/10/06 09:03:22;;;;;;;17.33;7.60;;;16.80;99.90;;;;;;5055370;28;20013;-78
2022/10/06 09:05:55;;;;;;;18.83;9.70;;;16.80;99.90;;;;;;5055446;28;20021;-78
2022/10/06 09:08:30;;;;;;;17.30;9.65;;;16.90;99.90;;;;;;5055415;28;20059;-78
2022/10/06 09:11:18;;;;;;;27.10;14.85;;;16.90;99.90;;;;;;5055466;28;20124;-78
2022/10/06 09:13:59;;;;;;;21.55;11.32;;;17.00;99.90;;;;;;5052281;28;20013;-78
2022/10/06 09:16:31;;;;;;;18.60;9.30;;;17.00;99.90;;;;;;5055262;28;20488;-78
2022/10/06 09:19:19;;;;;;;15.75;8.88;;;17.00;99.90;;;;;;5056142;28;20049;-78
2022/10/06 09:21:52;;;;;;;16.85;8.48;;;17.10;99.90;;;;;;5056573;28;20551;-78
2022/10/06 09:24:40;;;;;;;17.25;7.30;;;17.10;99.90;;;;;;5056569;28;20033;-78
2022/10/06 09:27:35;;;;;;;13.90;7.35;;;17.10;99.90;;;;;;5053421;28;20029;-78
2022/10/06 09:30:03;;;;;;;15.15;7.72;;;17.20;99.90;;;;;;5056484;28;20075;-77
2022/10/06 09:32:30;;;;;;;18.73;8.52;;;17.30;99.90;;;;;;5055438;28;20481;-78
2022/10/06 09:35:01;;;;;;;17.15;7.18;;;17.50;99.90;;;;;;5056226;28;20009;-78
2022/10/06 09:37:27;;;;;;;12.80;6.95;;;17.50;99.90;;;;;;5056254;28;20131;-77
2022/10/06 09:39:54;;;;;;;13.10;7.60;;;17.70;99.90;;;;;;5056451;28;20025;-77
2022/10/06 09:42:24;;;;;;;17.08;6.78;;;17.90;99.90;;;;;;5055104;28;20021;-78
2022/10/06 09:44:51;;;;;;;;;;;18.10;99.90;;;;;;5055533;28;20025;-77
2022/10/06 09:47:33;;;;;;;13.68;6.47;;;18.30;99.90;;;;;;5054920;28;19935;-77
2022/10/06 09:50:11;;;;;;;9.70;6.57;;;18.40;99.90;;;;;;5055042;28;20024;-77
2022/10/06 09:53:05;;;;;;;12.02;5.50;;;18.50;99.90;;;;;;5056235;28;20040;-78
2022/10/06 09:55:36;;;;;;;14.93;5.03;;;18.40;99.90;;;;;;5055054;28;20439;-78
2022/10/06 09:58:22;;;;;;;10.60;5.03;;;18.40;99.90;;;;;;5043583;28;20393;-78
2022/10/06 10:00:59;;;;;;;12.27;5.88;;;18.40;99.90;;;;;;5055009;28;20083;-78
2022/10/06 10:03:38;;;;;;;14.93;5.05;;;18.40;99.90;;;;;;5054631;28;20500;-77
2022/10/06 10:06:04;;;;;;;16.90;7.57;;;18.50;99.90;;;;;;5055078;28;20024;-77
2022/10/06 10:08:30;;;;;;;17.33;5.95;;;18.50;99.90;;;;;;5056237;28;20442;-78
2022/10/06 10:13:58;;;;;;;20.38;6.75;;;18.60;99.90;;;;;;5036961;28;20029;-77
2022/10/06 10:16:25;;;;;;;15.10;6.20;;;18.70;99.90;;;;;;5058478;28;20036;-77
2022/10/06 10:18:51;;;;;;;15.27;6.15;;;18.80;99.90;;;;;;5057906;28;20111;-77
2022/10/06 10:21:28;;;;;;;11.50;5.78;;;18.80;99.90;;;;;;5059782;28;20128;-77
2022/10/06 10:23:57;;;;;;;11.70;5.65;;;18.80;99.90;;;;;;5058188;28;20013;-77
2022/10/06 10:26:35;;;;;;;13.85;6.40;;;18.80;99.90;;;;;;5058176;28;20079;-78
2022/10/06 10:29:16;;;;;;;19.58;6.63;;;18.90;99.90;;;;;;5058180;28;20029;-78
2022/10/06 10:32:01;;;;;;;12.18;5.85;;;19.00;99.90;;;;;;5057562;28;20128;-77
2022/10/06 10:34:40;;;;;;;19.20;6.78;;;19.10;99.90;;;;;;5057875;28;20047;-75
2022/10/06 10:37:45;;;;;;;9.93;5.95;;;19.20;99.90;;;;;;5047815;28;20044;-76
2022/10/06 10:40:29;;;;;;;12.93;5.47;;;19.30;99.90;;;;;;5057665;28;20044;-76
2022/10/06 10:43:11;;;;;;;18.20;6.00;;;19.20;99.90;;;;;;5054365;28;20435;-76
2022/10/06 10:45:55;;;;;;;15.77;6.05;;;19.10;99.90;;;;;;5059406;28;20044;-76
2022/10/06 10:48:41;;;;;;;13.90;4.93;;;19.40;99.90;;;;;;5057387;28;20021;-77
2022/10/06 10:51:14;;;;;;;11.85;5.22;;;19.60;99.90;;;;;;5057612;28;20052;-76
2022/10/06 10:53:59;;;;;;;13.52;5.40;;;19.60;99.90;;;;;;5059124;28;20076;-76
2022/10/06 10:56:26;;;;;;;12.23;5.57;;;19.80;99.90;;;;;;5057539;28;20036;-76
2022/10/06 10:59:15;;;;;;;16.52;5.18;;;20.00;99.90;;;;;;5058816;28;20025;-77
2022/10/06 11:01:59;;;;;;;12.13;5.82;;;20.00;99.90;;;;;;5049358;28;20066;-76
2022/10/06 11:04:25;;;;;;;11.23;5.35;;;20.10;99.90;;;;;;5056953;28;20131;-76
2022/10/06 11:07:12;;;;;;;11.70;4.82;;;20.30;99.90;;;;;;5058910;28;20079;-76
2022/10/06 11:10:12;;;;;;;10.68;4.57;;;20.60;99.90;;;;;;5057304;28;20021;-77
2022/10/06 11:13:03;;;;;;;10.88;5.78;;;20.70;99.90;;;;;;5059002;28;20033;-76
2022/10/06 11:15:49;;;;;;;11.27;4.75;;;20.60;99.90;;;;;;5055757;28;20111;-77
2022/10/06 11:18:36;;;;;;;16.95;5.65;;;20.50;99.90;;;;;;5058034;28;20053;-76
2022/10/06 11:21:15;;;;;;;19.75;5.13;;;20.50;99.90;;;;;;5057446;28;20017;-76
2022/10/06 11:23:44;;;;;;;16.05;5.72;;;20.60;99.90;;;;;;5056652;28;20408;-76
2022/10/06 11:26:48;;;;;;;11.77;5.95;;;20.60;99.90;;;;;;5058297;28;20028;-76
2022/10/06 11:29:49;;;;;;;17.65;5.75;;;20.60;99.90;;;;;;5061170;28;20087;-76
2022/10/06 11:32:32;;;;;;;;;;;20.60;99.90;;;;;;5058352;28;20153;-77
2022/10/06 11:34:58;;;;;;;23.85;5.50;;;20.80;99.90;;;;;;5056633;28;19915;-77
2022/10/06 11:38:03;;;;;;;13.45;5.57;;;20.60;99.90;;;;;;5048077;28;20052;-77
2022/10/06 11:40:48;;;;;;;13.02;5.60;;;20.70;99.90;;;;;;5044483;28;20033;-75
2022/10/06 11:43:21;;;;;;;10.57;5.47;;;20.80;99.90;;;;;;5057925;28;20543;-75
2022/10/06 11:45:58;;;;;;;14.10;6.43;;;20.90;99.90;;;;;;5057873;28;20013;-76
2022/10/06 11:48:29;;;;;;;19.45;5.03;;;20.90;99.90;;;;;;5056226;28;20029;-76
2022/10/06 11:51:16;;;;;;;11.88;5.50;;;21.10;99.90;;;;;;5057739;28;20104;-76
2022/10/06 11:53:45;;;;;;;14.20;5.85;;;21.10;99.90;;;;;;5055732;28;20055;-76
2022/10/06 11:56:16;;;;;;;12.23;4.97;;;20.90;99.90;;;;;;5056191;28;20371;-77
2022/10/06 11:58:54;;;;;;;9.30;5.55;;;20.90;99.90;;;;;;5056107;28;20021;-77
2022/10/06 12:01:33;;;;;;;12.75;5.10;;;21.10;99.90;;;;;;5057308;28;20017;-77
2022/10/06 12:04:08;;;;;;;7.65;4.53;;;21.00;99.90;;;;;;5057467;28;20025;-76
2022/10/06 12:06:46;;;;;;;7.97;4.60;;;21.10;99.90;;;;;;5056325;28;20100;-76
2022/10/06 12:09:30;;;;;;;11.93;4.47;;;21.10;99.90;;;;;;5056029;28;20059;-77
2022/10/06 12:12:05;;;;;;;15.85;5.35;;;20.90;99.90;;;;;;5056285;28;20037;-75
2022/10/06 12:15:00;;;;;;;9.00;4.85;;;21.10;99.90;;;;;;5056303;28;20028;-77
2022/10/06 12:17:49;;;;;;;22.10;5.70;;;21.20;99.90;;;;;;5057052;28;20025;-76
2022/10/06 12:20:43;;;;;;;12.10;5.90;;;21.10;99.90;;;;;;5057149;28;20025;-76
2022/10/06 12:23:15;;;;;;;13.70;5.68;;;21.00;99.90;;;;;;5051800;28;20032;-77
2022/10/06 12:25:58;;;;;;;14.65;5.45;;;20.90;99.90;;;;;;5056015;28;20393;-76
2022/10/06 12:28:33;;;;;;;10.90;5.60;;;20.90;99.90;;;;;;5054711;28;20448;-76
2022/10/06 12:31:17;;;;;;;14.00;5.43;;;20.80;99.90;;;;;;5055794;28;20035;-76
2022/10/06 12:33:44;;;;;;;15.25;6.10;;;20.80;99.90;;;;;;5055571;28;20017;-77
2022/10/06 12:36:16;;;;;;;15.10;5.57;;;20.80;99.90;;;;;;5054787;28;20059;-76
2022/10/06 12:39:05;;;;;;;11.75;5.75;;;20.70;99.90;;;;;;5057096;28;20074;-75
2022/10/06 12:41:57;;;;;;;13.02;5.82;;;20.70;99.90;;;;;;5055564;28;20375;-76
2022/10/06 12:44:41;;;;;;;12.82;6.43;;;20.70;99.90;;;;;;5056886;28;20045;-77
2022/10/06 12:47:21;;;;;;;14.30;6.03;;;20.70;99.90;;;;;;5048189;28;20422;-76
2022/10/06 12:49:58;;;;;;;12.23;6.23;;;20.70;99.90;;;;;;5056537;28;20045;-76
2022/10/06 12:52:46;;;;;;;12.77;4.90;;;20.60;99.90;;;;;;5056839;28;20103;-76
2022/10/06 12:55:37;;;;;;;15.75;6.55;;;20.60;99.90;;;;;;5056793;28;20025;-76
2022/10/06 12:58:03;;;;;;;10.52;6.10;;;20.70;99.90;;;;;;5056862;28;20071;-76
2022/10/06 13:00:42;;;;;;;12.05;6.10;;;20.80;99.90;;;;;;5056651;28;20025;-76
2022/10/06 13:03:23;;;;;;;9.55;5.50;;;20.70;99.90;;;;;;5056531;28;20088;-76
2022/10/06 13:05:51;;;;;;;22.02;6.97;;;20.70;99.90;;;;;;5053814;28;20025;-77
2022/10/06 13:08:22;;;;;;;8.90;5.47;;;20.80;99.90;;;;;;5057167;28;20024;-76
2022/10/06 13:10:48;;;;;;;16.02;4.93;;;20.90;99.90;;;;;;5055328;28;20043;-76
2022/10/06 13:13:23;;;;;;;12.27;4.47;;;21.00;99.90;;;;;;5056694;28;20057;-77
2022/10/06 13:15:54;;;;;;;16.77;6.03;;;20.90;99.90;;;;;;5056676;28;20025;-76